sensor_id;sensor_type;location;lat;lon;timestamp;pressure;altitude;pressure_sealevel;temperature;humidity
79309;BME280;68767;53.078;7.386;2023-07-29T00:01:40;100851.13;;;17.25;100.00
79309;BME280;68767;53.078;7.386;2023-07-29T00:04:08;100844.78;;;17.18;100.00
79309;BME280;68767;53.078;7.386;2023-07-29T00:06:36;100852.94;;;17.18;100.00
79309;BME280;68767;53.078;7.386;2023-07-29T00:09:03;100850.03;;;17.07;100.00
79309;BME280;68767;53.078;7.386;2023-07-29T00:11:30;100847.09;;;16.96;100.00
79309;BME280;68767;53.078;7.386;2023-07-29T00:14:00;100841.09;;;17.06;100.00
79309;BME280;68767;53.078;7.386;2023-07-29T00:16:27;100834.41;;;17.00;100.00
79309;BME280;68767;53.078;7.386;2023-07-29T00:18:55;100831.25;;;16.98;100.00
79309;BME280;68767;53.078;7.386;2023-07-29T00:21:21;100830.81;;;16.96;100.00
79309;BME280;68767;53.078;7.386;2023-07-29T00:23:48;100827.22;;;16.89;100.00
79309;BME280;68767;53.078;7.386;2023-07-29T00:26:15;100827.13;;;16.85;100.00
79309;BME280;68767;53.078;7.386;2023-07-29T00:28:42;100831.00;;;16.84;100.00
79309;BME280;68767;53.078;7.386;2023-07-29T00:31:09;100828.63;;;16.82;100.00
79309;BME280;68767;53.078;7.386;2023-07-29T00:33:37;100830.72;;;16.89;100.00
79309;BME280;68767;53.078;7.386;2023-07-29T00:36:04;100832.06;;;16.79;100.00
79309;BME280;68767;53.078;7.386;2023-07-29T00:38:31;100830.06;;;16.76;100.00
79309;BME280;68767;53.078;7.386;2023-07-29T00:41:00;100820.19;;;16.68;100.00
79309;BME280;68767;53.078;7.386;2023-07-29T00:43:29;100821.00;;;16.69;100.00
79309;BME280;68767;53.078;7.386;2023-07-29T00:45:56;100815.22;;;16.70;100.00
79309;BME280;68767;53.078;7.386;2023-07-29T00:48:25;100815.31;;;16.74;100.00
79309;BME280;68767;53.078;7.386;2023-07-29T00:50:54;100817.84;;;16.67;100.00
79309;BME280;68767;53.078;7.386;2023-07-29T00:53:21;100805.78;;;16.64;100.00
79309;BME280;68767;53.078;7.386;2023-07-29T00:55:49;100804.28;;;16.67;100.00
79309;BME280;68767;53.078;7.386;2023-07-29T00:58:16;100801.06;;;16.61;100.00
79309;BME280;68767;53.078;7.386;2023-07-29T01:00:44;100806.13;;;16.63;100.00
79309;BME280;68767;53.078;7.386;2023-07-29T01:03:11;100802.72;;;16.66;100.00
79309;BME280;68767;53.078;7.386;2023-07-29T01:05:54;100799.63;;;16.67;100.00
79309;BME280;68767;53.078;7.386;2023-07-29T01:08:33;100792.81;;;16.73;100.00
79309;BME280;68767;53.078;7.386;2023-07-29T01:11:16;100792.03;;;16.73;100.00
79309;BME280;68767;53.078;7.386;2023-07-29T01:16:21;100791.44;;;16.83;100.00
79309;BME280;68767;53.078;7.386;2023-07-29T01:18:52;100789.41;;;16.99;100.00
79309;BME280;68767;53.078;7.386;2023-07-29T01:21:21;100795.19;;;16.98;100.00
79309;BME280;68767;53.078;7.386;2023-07-29T01:23:52;100794.41;;;16.97;100.00
79309;BME280;68767;53.078;7.386;2023-07-29T01:26:19;100797.97;;;17.01;100.00
79309;BME280;68767;53.078;7.386;2023-07-29T01:28:46;100791.69;;;16.97;100.00
79309;BME280;68767;53.078;7.386;2023-07-29T01:31:20;100797.53;;;16.99;100.00
79309;BME280;68767;53.078;7.386;2023-07-29T01:34:56;100786.56;;;16.92;100.00
79309;BME280;68767;53.078;7.386;2023-07-29T01:37:07;100790.47;;;16.95;100.00
79309;BME280;68767;53.078;7.386;2023-07-29T01:39:37;100785.03;;;16.95;100.00
79309;BME280;68767;53.078;7.386;2023-07-29T01:42:05;100797.22;;;16.81;100.00
79309;BME280;68767;53.078;7.386;2023-07-29T01:44:32;100789.91;;;16.85;100.00
79309;BME280;68767;53.078;7.386;2023-07-29T01:47:00;100790.09;;;16.73;100.00
79309;BME280;68767;53.078;7.386;2023-07-29T01:49:27;100783.53;;;16.74;100.00
79309;BME280;68767;53.078;7.386;2023-07-29T01:51:54;100775.59;;;16.66;100.00
79309;BME280;68767;53.078;7.386;2023-07-29T01:54:20;100779.72;;;16.60;100.00
79309;BME280;68767;53.078;7.386;2023-07-29T01:56:47;100783.81;;;16.69;100.00
79309;BME280;68767;53.078;7.386;2023-07-29T01:59:15;100789.56;;;16.68;100.00
79309;BME280;68767;53.078;7.386;2023-07-29T02:01:43;100792.50;;;16.59;100.00
79309;BME280;68767;53.078;7.386;2023-07-29T02:04:10;100790.84;;;16.54;100.00
79309;BME280;68767;53.078;7.386;2023-07-29T02:06:37;100785.22;;;16.44;100.00
79309;BME280;68767;53.078;7.386;2023-07-29T02:09:05;100788.44;;;16.49;100.00
79309;BME280;68767;53.078;7.386;2023-07-29T02:11:31;100781.47;;;16.48;100.00
79309;BME280;68767;53.078;7.386;2023-07-29T02:13:58;100773.25;;;16.45;100.00
79309;BME280;68767;53.078;7.386;2023-07-29T02:16:26;100779.16;;;16.50;100.00
79309;BME280;68767;53.078;7.386;2023-07-29T02:18:53;100765.25;;;16.52;100.00
79309;BME280;68767;53.078;7.386;2023-07-29T02:21:23;100770.66;;;16.52;100.00
79309;BME280;68767;53.078;7.386;2023-07-29T02:23:50;100775.94;;;16.45;100.00
79309;BME280;68767;53.078;7.386;2023-07-29T02:26:18;100775.59;;;16.46;100.00
79309;BME280;68767;53.078;7.386;2023-07-29T02:28:45;100775.59;;;16.46;100.00
79309;BME280;68767;53.078;7.386;2023-07-29T02:33:43;100774.03;;;16.45;100.00
79309;BME280;68767;53.078;7.386;2023-07-29T02:36:12;100772.41;;;16.41;100.00
79309;BME280;68767;53.078;7.386;2023-07-29T02:38:40;100760.81;;;16.44;100.00
79309;BME280;68767;53.078;7.386;2023-07-29T02:41:09;100765.41;;;16.40;100.00
79309;BME280;68767;53.078;7.386;2023-07-29T02:43:39;100769.19;;;16.35;100.00
79309;BME280;68767;53.078;7.386;2023-07-29T02:46:08;100761.00;;;16.32;100.00
79309;BME280;68767;53.078;7.386;2023-07-29T02:48:35;100764.53;;;16.36;100.00
79309;BME280;68767;53.078;7.386;2023-07-29T02:51:02;100767.25;;;16.36;100.00
79309;BME280;68767;53.078;7.386;2023-07-29T02:53:29;100769.75;;;16.25;100.00
79309;BME280;68767;53.078;7.386;2023-07-29T02:55:56;100766.41;;;16.32;100.00
79309;BME280;68767;53.078;7.386;2023-07-29T02:58:23;100774.47;;;16.28;100.00
79309;BME280;68767;53.078;7.386;2023-07-29T03:00:50;100762.47;;;16.29;100.00
79309;BME280;68767;53.078;7.386;2023-07-29T03:03:17;100773.19;;;16.22;100.00
79309;BME280;68767;53.078;7.386;2023-07-29T03:05:46;100760.91;;;16.28;100.00
79309;BME280;68767;53.078;7.386;2023-07-29T03:08:16;100767.09;;;16.28;100.00
79309;BME280;68767;53.078;7.386;2023-07-29T03:10:43;100761.31;;;16.30;100.00
79309;BME280;68767;53.078;7.386;2023-07-29T03:13:09;100757.81;;;16.29;100.00
79309;BME280;68767;53.078;7.386;2023-07-29T03:15:39;100756.50;;;16.39;100.00
79309;BME280;68767;53.078;7.386;2023-07-29T03:18:06;100749.91;;;16.40;100.00
79309;BME280;68767;53.078;7.386;2023-07-29T03:20:33;100760.31;;;16.38;100.00
79309;BME280;68767;53.078;7.386;2023-07-29T03:23:00;100757.34;;;16.43;100.00
79309;BME280;68767;53.078;7.386;2023-07-29T03:25:27;100749.41;;;16.35;100.00
79309;BME280;68767;53.078;7.386;2023-07-29T03:27:55;100745.88;;;16.31;100.00
79309;BME280;68767;53.078;7.386;2023-07-29T03:30:22;100753.56;;;16.28;100.00
79309;BME280;68767;53.078;7.386;2023-07-29T03:32:51;100754.63;;;16.24;100.00
79309;BME280;68767;53.078;7.386;2023-07-29T03:35:18;100756.41;;;16.36;100.00
79309;BME280;68767;53.078;7.386;2023-07-29T03:37:46;100750.63;;;16.37;100.00
79309;BME280;68767;53.078;7.386;2023-07-29T03:40:14;100756.91;;;16.41;100.00
79309;BME280;68767;53.078;7.386;2023-07-29T03:42:41;100749.56;;;16.42;100.00
79309;BME280;68767;53.078;7.386;2023-07-29T03:45:08;100756.50;;;16.39;100.00
79309;BME280;68767;53.078;7.386;2023-07-29T03:47:36;100750.19;;;16.35;100.00
79309;BME280;68767;53.078;7.386;2023-07-29T03:50:04;100750.41;;;16.26;100.00
79309;BME280;68767;53.078;7.386;2023-07-29T03:52:31;100743.38;;;16.22;100.00
79309;BME280;68767;53.078;7.386;2023-07-29T03:54:58;100749.56;;;16.22;100.00
79309;BME280;68767;53.078;7.386;2023-07-29T03:57:25;100748.44;;;16.23;100.00
79309;BME280;68767;53.078;7.386;2023-07-29T03:59:52;100743.22;;;16.34;100.00
79309;BME280;68767;53.078;7.386;2023-07-29T04:02:19;100743.22;;;16.34;100.00
79309;BME280;68767;53.078;7.386;2023-07-29T04:04:46;100737.78;;;16.34;100.00
79309;BME280;68767;53.078;7.386;2023-07-29T04:07:15;100736.66;;;16.35;100.00
79309;BME280;68767;53.078;7.386;2023-07-29T04:09:42;100728.94;;;16.37;100.00
79309;BME280;68767;53.078;7.386;2023-07-29T04:12:10;100728.94;;;16.37;100.00
79309;BME280;68767;53.078;7.386;2023-07-29T04:14:38;100741.66;;;16.33;100.00
79309;BME280;68767;53.078;7.386;2023-07-29T04:17:05;100741.56;;;16.29;100.00
79309;BME280;68767;53.078;7.386;2023-07-29T04:19:32;100746.28;;;16.33;100.00
79309;BME280;68767;53.078;7.386;2023-07-29T04:21:59;100751.56;;;16.25;100.00
79309;BME280;68767;53.078;7.386;2023-07-29T04:24:29;100746.88;;;16.22;100.00
79309;BME280;68767;53.078;7.386;2023-07-29T04:26:56;100752.72;;;16.24;100.00
79309;BME280;68767;53.078;7.386;2023-07-29T04:29:23;100753.50;;;16.25;100.00
79309;BME280;68767;53.078;7.386;2023-07-29T04:31:50;100745.28;;;16.21;100.00
79309;BME280;68767;53.078;7.386;2023-07-29T04:34:18;100748.44;;;16.23;100.00
79309;BME280;68767;53.078;7.386;2023-07-29T04:36:46;100734.16;;;16.26;100.00
79309;BME280;68767;53.078;7.386;2023-07-29T04:39:14;100728.72;;;16.26;100.00
79309;BME280;68767;53.078;7.386;2023-07-29T04:41:41;100724.97;;;16.31;100.00
79309;BME280;68767;53.078;7.386;2023-07-29T04:44:08;100724.59;;;16.33;100.00
79309;BME280;68767;53.078;7.386;2023-07-29T04:46:36;100718.44;;;16.36;100.00
79309;BME280;68767;53.078;7.386;2023-07-29T04:49:03;100720.31;;;16.32;100.00
79309;BME280;68767;53.078;7.386;2023-07-29T04:51:30;100714.94;;;16.35;100.00
79309;BME280;68767;53.078;7.386;2023-07-29T04:53:58;100712.66;;;16.37;100.00
79309;BME280;68767;53.078;7.386;2023-07-29T04:56:25;100713.75;;;16.33;100.00
79309;BME280;68767;53.078;7.386;2023-07-29T04:58:52;100710.63;;;16.31;100.00
79309;BME280;68767;53.078;7.386;2023-07-29T05:01:20;100704.59;;;16.41;100.00
79309;BME280;68767;53.078;7.386;2023-07-29T05:03:47;100719.88;;;16.49;100.00
79309;BME280;68767;53.078;7.386;2023-07-29T05:06:14;100715.28;;;16.53;100.00
79309;BME280;68767;53.078;7.386;2023-07-29T05:08:41;100717.75;;;16.62;100.00
79309;BME280;68767;53.078;7.386;2023-07-29T05:11:08;100721.75;;;16.68;100.00
79309;BME280;68767;53.078;7.386;2023-07-29T05:13:36;100718.63;;;16.66;100.00
79309;BME280;68767;53.078;7.386;2023-07-29T05:16:03;100721.34;;;16.66;100.00
79309;BME280;68767;53.078;7.386;2023-07-29T05:18:32;100716.00;;;16.69;100.00
79309;BME280;68767;53.078;7.386;2023-07-29T05:20:59;100716.91;;;16.77;100.00
79309;BME280;68767;53.078;7.386;2023-07-29T05:23:26;100726.19;;;16.76;100.00
79309;BME280;68767;53.078;7.386;2023-07-29T05:25:53;100728.25;;;16.82;100.00
79309;BME280;68767;53.078;7.386;2023-07-29T05:28:20;100731.75;;;16.83;100.00
79309;BME280;68767;53.078;7.386;2023-07-29T05:30:47;100728.63;;;16.81;100.00
79309;BME280;68767;53.078;7.386;2023-07-29T05:33:14;100730.31;;;16.89;100.00
79309;BME280;68767;53.078;7.386;2023-07-29T05:35:41;100722.44;;;16.84;100.00
79309;BME280;68767;53.078;7.386;2023-07-29T05:38:08;100730.41;;;16.96;100.00
79309;BME280;68767;53.078;7.386;2023-07-29T05:40:36;100727.34;;;16.98;100.00
79309;BME280;68767;53.078;7.386;2023-07-29T05:43:03;100734.56;;;16.90;100.00
79309;BME280;68767;53.078;7.386;2023-07-29T05:45:30;100745.13;;;16.95;100.00
79309;BME280;68767;53.078;7.386;2023-07-29T05:47:57;100737.72;;;16.92;100.00
79309;BME280;68767;53.078;7.386;2023-07-29T05:50:24;100738.78;;;16.88;100.00
79309;BME280;68767;53.078;7.386;2023-07-29T05:52:51;100736.16;;;16.91;100.00
79309;BME280;68767;53.078;7.386;2023-07-29T05:55:18;100742.06;;;16.97;100.00
79309;BME280;68767;53.078;7.386;2023-07-29T05:57:45;100736.94;;;16.92;100.00
79309;BME280;68767;53.078;7.386;2023-07-29T06:00:12;100735.47;;;16.98;100.00
79309;BME280;68767;53.078;7.386;2023-07-29T06:02:39;100742.88;;;17.01;100.00
79309;BME280;68767;53.078;7.386;2023-07-29T06:05:12;100738.00;;;17.10;100.00
79309;BME280;68767;53.078;7.386;2023-07-29T06:07:39;100736.81;;;17.07;100.00
79309;BME280;68767;53.078;7.386;2023-07-29T06:10:14;100742.03;;;17.20;100.00
79309;BME280;68767;53.078;7.386;2023-07-29T06:12:41;100748.69;;;17.22;100.00
79309;BME280;68767;53.078;7.386;2023-07-29T06:15:08;100738.72;;;17.30;100.00
79309;BME280;68767;53.078;7.386;2023-07-29T06:17:35;100737.75;;;17.45;100.00
79309;BME280;68767;53.078;7.386;2023-07-29T06:20:02;100738.31;;;17.54;100.00
79309;BME280;68767;53.078;7.386;2023-07-29T06:22:30;100746.88;;;17.56;100.00
79309;BME280;68767;53.078;7.386;2023-07-29T06:24:57;100742.16;;;17.53;100.00
79309;BME280;68767;53.078;7.386;2023-07-29T06:27:24;100738.97;;;17.48;100.00
79309;BME280;68767;53.078;7.386;2023-07-29T06:29:52;100747.06;;;17.44;100.00
79309;BME280;68767;53.078;7.386;2023-07-29T06:32:19;100744.72;;;17.42;100.00
79309;BME280;68767;53.078;7.386;2023-07-29T06:34:45;100751.00;;;17.47;100.00
79309;BME280;68767;53.078;7.386;2023-07-29T06:37:12;100742.47;;;17.48;100.00
79309;BME280;68767;53.078;7.386;2023-07-29T06:39:39;100754.28;;;17.59;100.00
79309;BME280;68767;53.078;7.386;2023-07-29T06:42:06;100745.31;;;17.55;100.00
79309;BME280;68767;53.078;7.386;2023-07-29T06:44:34;100750.78;;;17.59;100.00
79309;BME280;68767;53.078;7.386;2023-07-29T06:47:01;100736.13;;;17.67;100.00
79309;BME280;68767;53.078;7.386;2023-07-29T06:49:28;100742.72;;;17.66;100.00
79309;BME280;68767;53.078;7.386;2023-07-29T06:51:55;100747.88;;;17.71;100.00
79309;BME280;68767;53.078;7.386;2023-07-29T06:54:25;100747.75;;;17.90;100.00
79309;BME280;68767;53.078;7.386;2023-07-29T06:56:55;100751.47;;;18.09;100.00
79309;BME280;68767;53.078;7.386;2023-07-29T06:59:22;100753.44;;;18.12;100.00
79309;BME280;68767;53.078;7.386;2023-07-29T07:01:51;100751.88;;;18.11;100.00
79309;BME280;68767;53.078;7.386;2023-07-29T07:04:18;100755.09;;;18.20;100.00
79309;BME280;68767;53.078;7.386;2023-07-29T07:06:47;100771.69;;;18.11;100.00
79309;BME280;68767;53.078;7.386;2023-07-29T07:09:15;100768.63;;;18.13;100.00
79309;BME280;68767;53.078;7.386;2023-07-29T07:11:42;100765.44;;;18.07;100.00
79309;BME280;68767;53.078;7.386;2023-07-29T07:14:09;100757.97;;;18.01;100.00
79309;BME280;68767;53.078;7.386;2023-07-29T07:16:36;100755.03;;;18.13;100.00
79309;BME280;68767;53.078;7.386;2023-07-29T07:19:04;100758.66;;;18.24;100.00
79309;BME280;68767;53.078;7.386;2023-07-29T07:21:31;100749.66;;;18.20;100.00
79309;BME280;68767;53.078;7.386;2023-07-29T07:23:59;100746.44;;;18.11;100.00
79309;BME280;68767;53.078;7.386;2023-07-29T07:26:26;100747.28;;;18.15;100.00
79309;BME280;68767;53.078;7.386;2023-07-29T07:28:53;100739.81;;;18.42;100.00
79309;BME280;68767;53.078;7.386;2023-07-29T07:31:20;100749.03;;;18.67;100.00
79309;BME280;68767;53.078;7.386;2023-07-29T07:33:47;100753.50;;;18.86;100.00
79309;BME280;68767;53.078;7.386;2023-07-29T07:36:14;100744.66;;;18.96;100.00
79309;BME280;68767;53.078;7.386;2023-07-29T07:38:42;100756.22;;;18.86;100.00
79309;BME280;68767;53.078;7.386;2023-07-29T07:41:09;100756.56;;;18.81;100.00
79309;BME280;68767;53.078;7.386;2023-07-29T07:43:36;100763.34;;;19.01;100.00
79309;BME280;68767;53.078;7.386;2023-07-29T07:46:03;100759.44;;;18.99;100.00
79309;BME280;68767;53.078;7.386;2023-07-29T07:48:30;100754.53;;;19.15;100.00
79309;BME280;68767;53.078;7.386;2023-07-29T07:50:59;100762.06;;;19.32;100.00
79309;BME280;68767;53.078;7.386;2023-07-29T07:53:26;100770.16;;;19.25;100.00
79309;BME280;68767;53.078;7.386;2023-07-29T07:55:53;100762.78;;;18.82;100.00
79309;BME280;68767;53.078;7.386;2023-07-29T07:58:20;100771.38;;;18.50;100.00
79309;BME280;68767;53.078;7.386;2023-07-29T08:00:47;100769.84;;;18.52;100.00
79309;BME280;68767;53.078;7.386;2023-07-29T08:03:14;100758.78;;;18.68;100.00
79309;BME280;68767;53.078;7.386;2023-07-29T08:05:41;100765.53;;;18.82;100.00
79309;BME280;68767;53.078;7.386;2023-07-29T08:08:08;100767.22;;;18.97;100.00
79309;BME280;68767;53.078;7.386;2023-07-29T08:10:35;100766.22;;;19.19;100.00
79309;BME280;68767;53.078;7.386;2023-07-29T08:13:02;100766.66;;;19.25;100.00
79309;BME280;68767;53.078;7.386;2023-07-29T08:15:29;100752.06;;;19.51;100.00
79309;BME280;68767;53.078;7.386;2023-07-29T08:17:56;100766.59;;;19.62;100.00
79309;BME280;68767;53.078;7.386;2023-07-29T08:20:25;100766.88;;;19.53;100.00
79309;BME280;68767;53.078;7.386;2023-07-29T08:22:52;100765.44;;;19.67;100.00
79309;BME280;68767;53.078;7.386;2023-07-29T08:25:19;100766.19;;;19.63;100.00
79309;BME280;68767;53.078;7.386;2023-07-29T08:27:46;100756.03;;;19.57;100.00
79309;BME280;68767;53.078;7.386;2023-07-29T08:30:13;100759.78;;;20.04;100.00
79309;BME280;68767;53.078;7.386;2023-07-29T08:32:41;100764.44;;;20.00;100.00
79309;BME280;68767;53.078;7.386;2023-07-29T08:35:08;100760.03;;;19.77;100.00
79309;BME280;68767;53.078;7.386;2023-07-29T08:37:35;100759.88;;;19.56;100.00
79309;BME280;68767;53.078;7.386;2023-07-29T08:40:02;100766.94;;;19.60;100.00
79309;BME280;68767;53.078;7.386;2023-07-29T08:42:31;100763.88;;;19.69;100.00
79309;BME280;68767;53.078;7.386;2023-07-29T08:45:07;100766.00;;;19.39;100.00
79309;BME280;68767;53.078;7.386;2023-07-29T08:47:35;100766.06;;;19.46;100.00
79309;BME280;68767;53.078;7.386;2023-07-29T08:50:03;100769.56;;;19.46;100.00
79309;BME280;68767;53.078;7.386;2023-07-29T08:52:30;100771.63;;;19.60;100.00
79309;BME280;68767;53.078;7.386;2023-07-29T08:54:58;100768.09;;;19.59;100.00
79309;BME280;68767;53.078;7.386;2023-07-29T08:57:26;100773.31;;;19.82;100.00
79309;BME280;68767;53.078;7.386;2023-07-29T08:59:54;100767.66;;;20.27;100.00
79309;BME280;68767;53.078;7.386;2023-07-29T09:02:22;100761.81;;;20.21;100.00
79309;BME280;68767;53.078;7.386;2023-07-29T09:04:49;100761.34;;;20.08;100.00
79309;BME280;68767;53.078;7.386;2023-07-29T09:07:16;100760.94;;;19.96;100.00
79309;BME280;68767;53.078;7.386;2023-07-29T09:09:43;100755.50;;;20.03;100.00
79309;BME280;68767;53.078;7.386;2023-07-29T09:12:10;100757.91;;;20.22;100.00
79309;BME280;68767;53.078;7.386;2023-07-29T09:14:38;100753.75;;;20.46;100.00
79309;BME280;68767;53.078;7.386;2023-07-29T09:17:09;100761.19;;;20.63;100.00
79309;BME280;68767;53.078;7.386;2023-07-29T09:19:37;100758.34;;;20.42;100.00
79309;BME280;68767;53.078;7.386;2023-07-29T09:22:04;100757.16;;;20.32;100.00
79309;BME280;68767;53.078;7.386;2023-07-29T09:24:31;100765.38;;;20.39;100.00
79309;BME280;68767;53.078;7.386;2023-07-29T09:26:59;100760.63;;;20.15;100.00
79309;BME280;68767;53.078;7.386;2023-07-29T09:29:28;100759.31;;;19.87;100.00
79309;BME280;68767;53.078;7.386;2023-07-29T09:32:22;100765.88;;;19.76;100.00
79309;BME280;68767;53.078;7.386;2023-07-29T09:34:49;100757.34;;;19.81;100.00
79309;BME280;68767;53.078;7.386;2023-07-29T09:37:18;100757.38;;;19.88;100.00
79309;BME280;68767;53.078;7.386;2023-07-29T09:39:47;100747.72;;;20.08;100.00
79309;BME280;68767;53.078;7.386;2023-07-29T09:42:22;100733.84;;;20.45;100.00
79309;BME280;68767;53.078;7.386;2023-07-29T09:44:50;100733.88;;;20.67;100.00
79309;BME280;68767;53.078;7.386;2023-07-29T09:47:24;100727.66;;;20.98;100.00
79309;BME280;68767;53.078;7.386;2023-07-29T09:49:52;100731.97;;;20.85;100.00
79309;BME280;68767;53.078;7.386;2023-07-29T09:52:22;100732.72;;;21.07;100.00
79309;BME280;68767;53.078;7.386;2023-07-29T09:54:49;100733.47;;;21.61;100.00
79309;BME280;68767;53.078;7.386;2023-07-29T09:57:18;100742.47;;;21.51;100.00
79309;BME280;68767;53.078;7.386;2023-07-29T09:59:56;100743.66;;;21.03;100.00
79309;BME280;68767;53.078;7.386;2023-07-29T10:02:23;100750.63;;;20.58;100.00
79309;BME280;68767;53.078;7.386;2023-07-29T10:04:52;100749.78;;;20.40;100.00
79309;BME280;68767;53.078;7.386;2023-07-29T10:07:19;100752.44;;;20.18;100.00
79309;BME280;68767;53.078;7.386;2023-07-29T10:09:48;100754.84;;;20.41;100.00
79309;BME280;68767;53.078;7.386;2023-07-29T10:12:16;100753.00;;;20.63;100.00
79309;BME280;68767;53.078;7.386;2023-07-29T10:14:46;100750.69;;;21.01;100.00
79309;BME280;68767;53.078;7.386;2023-07-29T10:17:15;100746.38;;;21.18;100.00
79309;BME280;68767;53.078;7.386;2023-07-29T10:19:43;100746.41;;;21.32;100.00
79309;BME280;68767;53.078;7.386;2023-07-29T10:22:12;100748.72;;;21.48;100.00
79309;BME280;68767;53.078;7.386;2023-07-29T10:24:41;100751.88;;;21.39;100.00
79309;BME280;68767;53.078;7.386;2023-07-29T10:27:11;100749.47;;;21.77;100.00
79309;BME280;68767;53.078;7.386;2023-07-29T10:29:44;100743.94;;;21.95;100.00
79309;BME280;68767;53.078;7.386;2023-07-29T10:32:12;100736.91;;;21.94;100.00
79309;BME280;68767;53.078;7.386;2023-07-29T10:34:40;100741.72;;;21.47;100.00
79309;BME280;68767;53.078;7.386;2023-07-29T10:37:08;100739.25;;;21.84;100.00
79309;BME280;68767;53.078;7.386;2023-07-29T10:39:39;100742.38;;;21.90;100.00
79309;BME280;68767;53.078;7.386;2023-07-29T10:42:07;100735.59;;;22.27;100.00
79309;BME280;68767;53.078;7.386;2023-07-29T10:47:20;100731.38;;;22.74;100.00
79309;BME280;68767;53.078;7.386;2023-07-29T10:49:56;100733.25;;;22.91;100.00
79309;BME280;68767;53.078;7.386;2023-07-29T10:55:03;100717.69;;;22.78;100.00
79309;BME280;68767;53.078;7.386;2023-07-29T10:57:48;100713.59;;;23.41;100.00
79309;BME280;68767;53.078;7.386;2023-07-29T11:00:16;100715.19;;;23.42;100.00
79309;BME280;68767;53.078;7.386;2023-07-29T11:02:56;100704.75;;;23.68;100.00
79309;BME280;68767;53.078;7.386;2023-07-29T11:05:25;100712.91;;;23.34;100.00
79309;BME280;68767;53.078;7.386;2023-07-29T11:07:52;100701.13;;;23.37;100.00
79309;BME280;68767;53.078;7.386;2023-07-29T11:10:20;100700.25;;;23.81;100.00
79309;BME280;68767;53.078;7.386;2023-07-29T11:12:49;100698.22;;;24.46;100.00
79309;BME280;68767;53.078;7.386;2023-07-29T11:15:30;100706.00;;;24.51;100.00
79309;BME280;68767;53.078;7.386;2023-07-29T11:17:58;100696.69;;;24.45;100.00
79309;BME280;68767;53.078;7.386;2023-07-29T11:20:30;100712.38;;;24.14;100.00
79309;BME280;68767;53.078;7.386;2023-07-29T11:23:00;100709.97;;;24.20;100.00
79309;BME280;68767;53.078;7.386;2023-07-29T11:25:28;100699.84;;;24.13;100.00
79309;BME280;68767;53.078;7.386;2023-07-29T11:27:57;100702.94;;;24.96;100.00
79309;BME280;68767;53.078;7.386;2023-07-29T11:30:25;100697.47;;;25.39;100.00
79309;BME280;68767;53.078;7.386;2023-07-29T11:32:57;100701.16;;;25.53;100.00
79309;BME280;68767;53.078;7.386;2023-07-29T11:35:24;100700.41;;;25.72;100.00
79309;BME280;68767;53.078;7.386;2023-07-29T11:37:53;100694.44;;;25.54;100.00
79309;BME280;68767;53.078;7.386;2023-07-29T11:40:21;100695.81;;;25.65;100.00
79309;BME280;68767;53.078;7.386;2023-07-29T11:42:50;100703.44;;;24.91;100.00
79309;BME280;68767;53.078;7.386;2023-07-29T11:45:19;100701.44;;;25.15;100.00
79309;BME280;68767;53.078;7.386;2023-07-29T11:47:46;100689.94;;;25.43;100.00
79309;BME280;68767;53.078;7.386;2023-07-29T11:50:14;100701.19;;;24.59;100.00
79309;BME280;68767;53.078;7.386;2023-07-29T11:52:43;100709.56;;;24.75;100.00
79309;BME280;68767;53.078;7.386;2023-07-29T11:55:11;100714.19;;;25.48;100.00
79309;BME280;68767;53.078;7.386;2023-07-29T11:57:39;100697.66;;;24.58;100.00
79309;BME280;68767;53.078;7.386;2023-07-29T12:00:09;100705.38;;;24.67;100.00
79309;BME280;68767;53.078;7.386;2023-07-29T12:02:39;100700.47;;;24.24;100.00
79309;BME280;68767;53.078;7.386;2023-07-29T12:05:08;100710.38;;;24.18;100.00
79309;BME280;68767;53.078;7.386;2023-07-29T12:07:38;100723.00;;;24.12;100.00
79309;BME280;68767;53.078;7.386;2023-07-29T12:10:06;100718.22;;;23.51;100.00
79309;BME280;68767;53.078;7.386;2023-07-29T12:12:38;100723.47;;;23.35;100.00
79309;BME280;68767;53.078;7.386;2023-07-29T12:15:07;100720.47;;;22.70;100.00
79309;BME280;68767;53.078;7.386;2023-07-29T12:17:39;100734.22;;;21.79;100.00
79309;BME280;68767;53.078;7.386;2023-07-29T12:20:10;100751.81;;;20.54;100.00
79309;BME280;68767;53.078;7.386;2023-07-29T12:22:37;100751.16;;;19.36;100.00
79309;BME280;68767;53.078;7.386;2023-07-29T12:25:05;100756.34;;;19.00;100.00
79309;BME280;68767;53.078;7.386;2023-07-29T12:27:33;100758.34;;;19.03;100.00
79309;BME280;68767;53.078;7.386;2023-07-29T12:30:01;100760.22;;;20.16;100.00
79309;BME280;68767;53.078;7.386;2023-07-29T12:32:30;100764.44;;;20.00;100.00
79309;BME280;68767;53.078;7.386;2023-07-29T12:34:57;100761.75;;;20.03;100.00
79309;BME280;68767;53.078;7.386;2023-07-29T12:37:31;100752.88;;;20.31;100.00
79309;BME280;68767;53.078;7.386;2023-07-29T12:39:59;100753.78;;;20.82;100.00
79309;BME280;68767;53.078;7.386;2023-07-29T12:42:26;100753.13;;;22.40;100.00
79309;BME280;68767;53.078;7.386;2023-07-29T12:44:53;100742.22;;;22.92;100.00
79309;BME280;68767;53.078;7.386;2023-07-29T12:47:20;100732.94;;;23.68;100.00
79309;BME280;68767;53.078;7.386;2023-07-29T12:49:47;100739.59;;;24.35;100.00
79309;BME280;68767;53.078;7.386;2023-07-29T12:52:14;100734.53;;;24.00;100.00
79309;BME280;68767;53.078;7.386;2023-07-29T12:54:41;100724.59;;;24.40;100.00
79309;BME280;68767;53.078;7.386;2023-07-29T12:57:11;100733.81;;;23.62;100.00